sensor_id;sensor_type;location;lat;lon;timestamp;temperature;humidity
837;DHT22;400;53.550;9.932;2023-06-10T00:02:05;16.90;99.90
837;DHT22;400;53.550;9.932;2023-06-10T00:04:33;16.90;99.90
837;DHT22;400;53.550;9.932;2023-06-10T00:07:00;17.00;99.90
837;DHT22;400;53.550;9.932;2023-06-10T00:09:30;17.00;99.90
837;DHT22;400;53.550;9.932;2023-06-10T00:11:57;17.00;99.90
837;DHT22;400;53.550;9.932;2023-06-10T00:14:26;17.00;99.90
837;DHT22;400;53.550;9.932;2023-06-10T00:16:53;16.90;99.90
837;DHT22;400;53.550;9.932;2023-06-10T00:19:23;16.80;99.90
837;DHT22;400;53.550;9.932;2023-06-10T00:21:52;16.80;99.90
837;DHT22;400;53.550;9.932;2023-06-10T00:24:19;16.80;99.90
837;DHT22;400;53.550;9.932;2023-06-10T00:26:47;16.70;99.90
837;DHT22;400;53.550;9.932;2023-06-10T00:29:15;16.70;99.90
837;DHT22;400;53.550;9.932;2023-06-10T00:31:45;16.60;99.90
837;DHT22;400;53.550;9.932;2023-06-10T00:34:12;16.50;99.90
837;DHT22;400;53.550;9.932;2023-06-10T00:36:39;16.50;99.90
837;DHT22;400;53.550;9.932;2023-06-10T00:39:06;16.50;99.90
837;DHT22;400;53.550;9.932;2023-06-10T00:41:33;16.50;99.90
837;DHT22;400;53.550;9.932;2023-06-10T00:44:01;16.40;99.90
837;DHT22;400;53.550;9.932;2023-06-10T00:46:29;16.40;99.90
837;DHT22;400;53.550;9.932;2023-06-10T00:48:57;16.40;99.90
837;DHT22;400;53.550;9.932;2023-06-10T00:51:25;16.20;99.90
837;DHT22;400;53.550;9.932;2023-06-10T00:53:53;16.20;99.90
837;DHT22;400;53.550;9.932;2023-06-10T00:56:22;16.10;99.90
837;DHT22;400;53.550;9.932;2023-06-10T00:58:49;16.10;99.90
837;DHT22;400;53.550;9.932;2023-06-10T01:01:18;16.10;99.90
837;DHT22;400;53.550;9.932;2023-06-10T01:03:45;16.10;99.90
837;DHT22;400;53.550;9.932;2023-06-10T01:06:19;16.10;99.90
837;DHT22;400;53.550;9.932;2023-06-10T01:08:52;16.00;99.90
837;DHT22;400;53.550;9.932;2023-06-10T01:11:25;16.10;99.90
837;DHT22;400;53.550;9.932;2023-06-10T01:13:56;16.00;99.90
837;DHT22;400;53.550;9.932;2023-06-10T01:16:27;15.90;99.90
837;DHT22;400;53.550;9.932;2023-06-10T01:18:54;15.90;99.90
837;DHT22;400;53.550;9.932;2023-06-10T01:21:23;15.90;99.90
837;DHT22;400;53.550;9.932;2023-06-10T01:23:53;15.90;99.90
837;DHT22;400;53.550;9.932;2023-06-10T01:26:24;15.80;99.90
837;DHT22;400;53.550;9.932;2023-06-10T01:28:57;15.80;99.90
837;DHT22;400;53.550;9.932;2023-06-10T01:31:36;15.80;99.90
837;DHT22;400;53.550;9.932;2023-06-10T01:34:08;15.80;99.90
837;DHT22;400;53.550;9.932;2023-06-10T01:36:37;15.70;99.90
837;DHT22;400;53.550;9.932;2023-06-10T01:39:05;15.70;99.90
837;DHT22;400;53.550;9.932;2023-06-10T01:41:35;15.70;99.90
837;DHT22;400;53.550;9.932;2023-06-10T01:44:02;15.70;99.90
837;DHT22;400;53.550;9.932;2023-06-10T01:46:29;15.70;99.90
837;DHT22;400;53.550;9.932;2023-06-10T01:48:56;15.70;99.90
837;DHT22;400;53.550;9.932;2023-06-10T01:51:23;15.70;99.90
837;DHT22;400;53.550;9.932;2023-06-10T01:53:51;15.60;99.90
837;DHT22;400;53.550;9.932;2023-06-10T01:56:18;15.50;99.90
837;DHT22;400;53.550;9.932;2023-06-10T01:58:45;15.50;99.90
837;DHT22;400;53.550;9.932;2023-06-10T02:01:12;15.50;99.90
837;DHT22;400;53.550;9.932;2023-06-10T02:03:39;15.40;99.90
837;DHT22;400;53.550;9.932;2023-06-10T02:06:06;15.40;99.90
837;DHT22;400;53.550;9.932;2023-06-10T02:08:33;15.40;99.90
837;DHT22;400;53.550;9.932;2023-06-10T02:11:01;15.40;99.90
837;DHT22;400;53.550;9.932;2023-06-10T02:13:28;15.40;99.90
837;DHT22;400;53.550;9.932;2023-06-10T02:15:55;15.40;99.90
837;DHT22;400;53.550;9.932;2023-06-10T02:18:22;15.40;99.90
837;DHT22;400;53.550;9.932;2023-06-10T02:20:49;15.20;99.90
837;DHT22;400;53.550;9.932;2023-06-10T02:23:16;15.20;99.90
837;DHT22;400;53.550;9.932;2023-06-10T02:25:43;15.30;99.90
837;DHT22;400;53.550;9.932;2023-06-10T02:28:15;15.30;99.90
837;DHT22;400;53.550;9.932;2023-06-10T02:30:42;15.20;99.90
837;DHT22;400;53.550;9.932;2023-06-10T02:33:09;15.30;99.90
837;DHT22;400;53.550;9.932;2023-06-10T02:35:37;15.30;99.90
837;DHT22;400;53.550;9.932;2023-06-10T02:38:04;15.20;99.90
837;DHT22;400;53.550;9.932;2023-06-10T02:40:31;15.20;99.90
837;DHT22;400;53.550;9.932;2023-06-10T02:42:58;15.20;99.90
837;DHT22;400;53.550;9.932;2023-06-10T02:45:26;15.20;99.90
837;DHT22;400;53.550;9.932;2023-06-10T02:47:53;15.20;99.90
837;DHT22;400;53.550;9.932;2023-06-10T02:50:20;15.20;99.90
837;DHT22;400;53.550;9.932;2023-06-10T02:52:48;15.20;99.90
837;DHT22;400;53.550;9.932;2023-06-10T02:55:18;15.20;99.90
837;DHT22;400;53.550;9.932;2023-06-10T02:57:49;15.20;99.90
837;DHT22;400;53.550;9.932;2023-06-10T03:00:35;15.20;99.90
837;DHT22;400;53.550;9.932;2023-06-10T03:03:06;15.20;99.90
837;DHT22;400;53.550;9.932;2023-06-10T03:05:33;15.20;99.90
837;DHT22;400;53.550;9.932;2023-06-10T03:08:00;15.30;99.90
837;DHT22;400;53.550;9.932;2023-06-10T03:10:27;15.20;99.90
837;DHT22;400;53.550;9.932;2023-06-10T03:12:54;15.20;99.90
837;DHT22;400;53.550;9.932;2023-06-10T03:15:23;15.20;99.90
837;DHT22;400;53.550;9.932;2023-06-10T03:18:00;15.10;99.90
837;DHT22;400;53.550;9.932;2023-06-10T03:20:29;15.10;99.90
837;DHT22;400;53.550;9.932;2023-06-10T03:22:56;15.00;99.90
837;DHT22;400;53.550;9.932;2023-06-10T03:25:23;15.10;99.90
837;DHT22;400;53.550;9.932;2023-06-10T03:27:53;15.00;99.90
837;DHT22;400;53.550;9.932;2023-06-10T03:30:19;15.00;99.90
837;DHT22;400;53.550;9.932;2023-06-10T03:32:46;15.10;99.90
837;DHT22;400;53.550;9.932;2023-06-10T03:35:15;15.10;99.90
837;DHT22;400;53.550;9.932;2023-06-10T03:37:43;15.10;99.90
837;DHT22;400;53.550;9.932;2023-06-10T03:40:10;15.10;99.90
837;DHT22;400;53.550;9.932;2023-06-10T03:42:39;15.10;99.90
837;DHT22;400;53.550;9.932;2023-06-10T03:45:09;15.00;99.90
837;DHT22;400;53.550;9.932;2023-06-10T03:47:38;15.00;99.90
837;DHT22;400;53.550;9.932;2023-06-10T03:50:06;15.00;99.90
837;DHT22;400;53.550;9.932;2023-06-10T03:52:35;15.10;99.90
837;DHT22;400;53.550;9.932;2023-06-10T03:55:10;15.10;99.90
837;DHT22;400;53.550;9.932;2023-06-10T03:57:42;15.10;99.90
837;DHT22;400;53.550;9.932;2023-06-10T04:00:15;15.10;99.90
837;DHT22;400;53.550;9.932;2023-06-10T04:02:51;15.10;99.90
837;DHT22;400;53.550;9.932;2023-06-10T04:05:27;15.10;99.90
837;DHT22;400;53.550;9.932;2023-06-10T04:07:58;15.20;99.90
837;DHT22;400;53.550;9.932;2023-06-10T04:10:27;15.20;99.90
837;DHT22;400;53.550;9.932;2023-06-10T04:12:54;15.20;99.90
837;DHT22;400;53.550;9.932;2023-06-10T04:15:21;15.20;99.90
837;DHT22;400;53.550;9.932;2023-06-10T04:17:48;15.20;99.90
837;DHT22;400;53.550;9.932;2023-06-10T04:20:15;15.30;99.90
837;DHT22;400;53.550;9.932;2023-06-10T04:22:42;15.40;99.90
837;DHT22;400;53.550;9.932;2023-06-10T04:25:11;15.40;99.90
837;DHT22;400;53.550;9.932;2023-06-10T04:27:38;15.50;99.90
837;DHT22;400;53.550;9.932;2023-06-10T04:30:06;15.60;99.90
837;DHT22;400;53.550;9.932;2023-06-10T04:32:33;15.70;99.90
837;DHT22;400;53.550;9.932;2023-06-10T04:35:00;15.70;99.90
837;DHT22;400;53.550;9.932;2023-06-10T04:37:27;15.80;99.90
837;DHT22;400;53.550;9.932;2023-06-10T04:39:54;15.90;99.90
837;DHT22;400;53.550;9.932;2023-06-10T04:42:25;16.00;99.90
837;DHT22;400;53.550;9.932;2023-06-10T04:44:52;16.00;99.90
837;DHT22;400;53.550;9.932;2023-06-10T04:47:19;16.10;99.90
837;DHT22;400;53.550;9.932;2023-06-10T04:49:46;16.20;99.90
837;DHT22;400;53.550;9.932;2023-06-10T04:52:13;16.30;99.90
837;DHT22;400;53.550;9.932;2023-06-10T04:54:40;16.40;99.90
837;DHT22;400;53.550;9.932;2023-06-10T04:57:07;16.40;99.90
837;DHT22;400;53.550;9.932;2023-06-10T04:59:35;16.50;99.90
837;DHT22;400;53.550;9.932;2023-06-10T05:02:04;16.50;99.90
837;DHT22;400;53.550;9.932;2023-06-10T05:04:32;16.60;99.90
837;DHT22;400;53.550;9.932;2023-06-10T05:06:59;16.60;99.90
837;DHT22;400;53.550;9.932;2023-06-10T05:09:26;16.70;99.90
837;DHT22;400;53.550;9.932;2023-06-10T05:11:54;16.70;99.90
837;DHT22;400;53.550;9.932;2023-06-10T05:14:21;16.70;99.90
837;DHT22;400;53.550;9.932;2023-06-10T05:16:49;16.80;99.90
837;DHT22;400;53.550;9.932;2023-06-10T05:19:16;16.80;99.90
837;DHT22;400;53.550;9.932;2023-06-10T05:21:44;16.80;99.90
837;DHT22;400;53.550;9.932;2023-06-10T05:24:11;16.80;99.90
837;DHT22;400;53.550;9.932;2023-06-10T05:26:38;16.80;99.90
837;DHT22;400;53.550;9.932;2023-06-10T05:29:05;16.80;99.90
837;DHT22;400;53.550;9.932;2023-06-10T05:31:32;16.80;99.90
837;DHT22;400;53.550;9.932;2023-06-10T05:34:01;16.90;99.90
837;DHT22;400;53.550;9.932;2023-06-10T05:36:27;17.00;99.90
837;DHT22;400;53.550;9.932;2023-06-10T05:38:57;17.10;99.90
837;DHT22;400;53.550;9.932;2023-06-10T05:41:26;17.00;99.90
837;DHT22;400;53.550;9.932;2023-06-10T05:43:53;17.10;99.90
837;DHT22;400;53.550;9.932;2023-06-10T05:46:20;17.20;99.90
837;DHT22;400;53.550;9.932;2023-06-10T05:48:47;17.30;99.90
837;DHT22;400;53.550;9.932;2023-06-10T05:51:15;17.30;99.90
837;DHT22;400;53.550;9.932;2023-06-10T05:53:42;17.40;99.90
837;DHT22;400;53.550;9.932;2023-06-10T05:56:12;17.30;99.90
837;DHT22;400;53.550;9.932;2023-06-10T05:58:39;17.30;99.90
837;DHT22;400;53.550;9.932;2023-06-10T06:01:06;17.30;99.90
837;DHT22;400;53.550;9.932;2023-06-10T06:03:33;17.50;99.90
837;DHT22;400;53.550;9.932;2023-06-10T06:06:00;17.50;99.90
837;DHT22;400;53.550;9.932;2023-06-10T06:08:33;17.50;99.90
837;DHT22;400;53.550;9.932;2023-06-10T06:11:00;17.60;99.90
837;DHT22;400;53.550;9.932;2023-06-10T06:13:27;17.60;99.90
837;DHT22;400;53.550;9.932;2023-06-10T06:15:54;17.60;99.90
837;DHT22;400;53.550;9.932;2023-06-10T06:18:21;17.70;99.90
837;DHT22;400;53.550;9.932;2023-06-10T06:20:48;17.70;99.90
837;DHT22;400;53.550;9.932;2023-06-10T06:23:15;17.50;99.90
837;DHT22;400;53.550;9.932;2023-06-10T06:25:43;17.50;99.90
837;DHT22;400;53.550;9.932;2023-06-10T06:28:10;17.50;99.90
837;DHT22;400;53.550;9.932;2023-06-10T06:30:37;17.50;99.90
837;DHT22;400;53.550;9.932;2023-06-10T06:33:05;17.40;99.90
837;DHT22;400;53.550;9.932;2023-06-10T06:35:32;17.40;99.90
837;DHT22;400;53.550;9.932;2023-06-10T06:37:59;17.40;99.90
837;DHT22;400;53.550;9.932;2023-06-10T06:40:26;17.60;99.90
837;DHT22;400;53.550;9.932;2023-06-10T06:42:55;17.70;99.90
837;DHT22;400;53.550;9.932;2023-06-10T06:45:25;17.70;99.90
837;DHT22;400;53.550;9.932;2023-06-10T06:47:56;17.80;99.90
837;DHT22;400;53.550;9.932;2023-06-10T06:50:23;17.90;99.90
837;DHT22;400;53.550;9.932;2023-06-10T06:52:50;18.00;99.90
837;DHT22;400;53.550;9.932;2023-06-10T06:55:24;18.00;99.90
837;DHT22;400;53.550;9.932;2023-06-10T06:57:50;18.00;99.90
837;DHT22;400;53.550;9.932;2023-06-10T07:00:21;18.10;99.90
837;DHT22;400;53.550;9.932;2023-06-10T07:02:51;18.10;99.90
837;DHT22;400;53.550;9.932;2023-06-10T07:05:18;18.10;99.90
837;DHT22;400;53.550;9.932;2023-06-10T07:07:48;18.10;99.90
837;DHT22;400;53.550;9.932;2023-06-10T07:10:20;18.10;99.90
837;DHT22;400;53.550;9.932;2023-06-10T07:12:47;18.20;99.90
837;DHT22;400;53.550;9.932;2023-06-10T07:15:14;18.00;99.90
837;DHT22;400;53.550;9.932;2023-06-10T07:17:46;18.00;99.90
837;DHT22;400;53.550;9.932;2023-06-10T07:20:14;18.00;99.90
837;DHT22;400;53.550;9.932;2023-06-10T07:22:42;18.00;99.90
837;DHT22;400;53.550;9.932;2023-06-10T07:25:09;18.10;99.90
837;DHT22;400;53.550;9.932;2023-06-10T07:27:36;18.20;99.90
837;DHT22;400;53.550;9.932;2023-06-10T07:30:06;18.20;99.90
837;DHT22;400;53.550;9.932;2023-06-10T07:32:41;18.30;99.90
837;DHT22;400;53.550;9.932;2023-06-10T07:35:36;18.20;99.90
837;DHT22;400;53.550;9.932;2023-06-10T07:38:03;18.20;99.90
837;DHT22;400;53.550;9.932;2023-06-10T07:40:30;18.30;99.90
837;DHT22;400;53.550;9.932;2023-06-10T07:42:59;18.40;99.90
837;DHT22;400;53.550;9.932;2023-06-10T07:45:27;18.40;99.90
837;DHT22;400;53.550;9.932;2023-06-10T07:47:54;18.50;99.90
837;DHT22;400;53.550;9.932;2023-06-10T07:50:21;18.50;99.90
837;DHT22;400;53.550;9.932;2023-06-10T07:52:51;18.60;99.90
837;DHT22;400;53.550;9.932;2023-06-10T07:55:18;18.70;99.90
837;DHT22;400;53.550;9.932;2023-06-10T07:57:45;18.70;99.90
837;DHT22;400;53.550;9.932;2023-06-10T08:00:12;18.80;99.90
837;DHT22;400;53.550;9.932;2023-06-10T08:02:41;18.80;99.90
837;DHT22;400;53.550;9.932;2023-06-10T08:05:08;18.90;99.90
837;DHT22;400;53.550;9.932;2023-06-10T08:07:35;19.00;99.90
837;DHT22;400;53.550;9.932;2023-06-10T08:10:06;19.00;99.90
837;DHT22;400;53.550;9.932;2023-06-10T08:12:38;19.10;99.90
837;DHT22;400;53.550;9.932;2023-06-10T08:15:10;19.10;99.90
837;DHT22;400;53.550;9.932;2023-06-10T08:17:40;19.10;99.90
837;DHT22;400;53.550;9.932;2023-06-10T08:20:08;19.10;99.90
837;DHT22;400;53.550;9.932;2023-06-10T08:22:35;19.20;99.90
837;DHT22;400;53.550;9.932;2023-06-10T08:25:04;19.20;99.90
837;DHT22;400;53.550;9.932;2023-06-10T08:27:31;19.30;99.90
837;DHT22;400;53.550;9.932;2023-06-10T08:29:58;19.30;99.90
837;DHT22;400;53.550;9.932;2023-06-10T08:32:27;19.30;99.90
837;DHT22;400;53.550;9.932;2023-06-10T08:34:56;19.40;99.90
837;DHT22;400;53.550;9.932;2023-06-10T08:37:30;19.40;99.90
837;DHT22;400;53.550;9.932;2023-06-10T08:40:07;19.50;99.90
837;DHT22;400;53.550;9.932;2023-06-10T08:42:39;19.50;99.90
837;DHT22;400;53.550;9.932;2023-06-10T08:45:07;19.60;99.90
837;DHT22;400;53.550;9.932;2023-06-10T08:47:39;19.80;99.90
837;DHT22;400;53.550;9.932;2023-06-10T08:50:08;19.90;99.90
837;DHT22;400;53.550;9.932;2023-06-10T08:52:37;19.90;99.90
837;DHT22;400;53.550;9.932;2023-06-10T08:55:18;20.00;99.90
837;DHT22;400;53.550;9.932;2023-06-10T08:57:51;20.10;99.90
837;DHT22;400;53.550;9.932;2023-06-10T09:00:19;20.10;99.90
837;DHT22;400;53.550;9.932;2023-06-10T09:02:46;20.20;99.90
837;DHT22;400;53.550;9.932;2023-06-10T09:05:16;20.00;99.90
837;DHT22;400;53.550;9.932;2023-06-10T09:07:49;20.10;99.90
837;DHT22;400;53.550;9.932;2023-06-10T09:10:22;20.20;99.90
837;DHT22;400;53.550;9.932;2023-06-10T09:12:49;20.30;99.90
837;DHT22;400;53.550;9.932;2023-06-10T09:15:16;20.30;99.90
837;DHT22;400;53.550;9.932;2023-06-10T09:17:44;20.40;99.90
837;DHT22;400;53.550;9.932;2023-06-10T09:20:16;20.40;99.90
837;DHT22;400;53.550;9.932;2023-06-10T09:22:43;20.50;99.90
837;DHT22;400;53.550;9.932;2023-06-10T09:25:12;20.60;99.90
837;DHT22;400;53.550;9.932;2023-06-10T09:27:51;20.70;99.90
837;DHT22;400;53.550;9.932;2023-06-10T09:30:27;20.70;99.90
837;DHT22;400;53.550;9.932;2023-06-10T09:32:55;20.70;99.90
837;DHT22;400;53.550;9.932;2023-06-10T09:35:22;20.80;99.90
837;DHT22;400;53.550;9.932;2023-06-10T09:38:04;20.90;99.90
837;DHT22;400;53.550;9.932;2023-06-10T09:40:48;20.90;99.90
837;DHT22;400;53.550;9.932;2023-06-10T09:43:20;20.90;99.90
837;DHT22;400;53.550;9.932;2023-06-10T09:45:48;21.00;99.90
837;DHT22;400;53.550;9.932;2023-06-10T09:48:15;21.00;99.90
837;DHT22;400;53.550;9.932;2023-06-10T09:50:46;21.10;99.90
837;DHT22;400;53.550;9.932;2023-06-10T09:53:17;21.20;99.90
837;DHT22;400;53.550;9.932;2023-06-10T09:55:50;21.20;99.90
837;DHT22;400;53.550;9.932;2023-06-10T10:01:16;21.30;99.90
837;DHT22;400;53.550;9.932;2023-06-10T10:03:44;21.50;99.90
837;DHT22;400;53.550;9.932;2023-06-10T10:06:16;21.50;99.90
837;DHT22;400;53.550;9.932;2023-06-10T10:08:44;21.50;99.90
837;DHT22;400;53.550;9.932;2023-06-10T10:11:14;21.60;99.90
837;DHT22;400;53.550;9.932;2023-06-10T10:13:41;21.60;99.90
837;DHT22;400;53.550;9.932;2023-06-10T10:16:14;21.70;99.90
837;DHT22;400;53.550;9.932;2023-06-10T10:18:49;21.80;99.90
837;DHT22;400;53.550;9.932;2023-06-10T10:21:22;21.90;99.90
837;DHT22;400;53.550;9.932;2023-06-10T10:24:03;21.90;99.90
837;DHT22;400;53.550;9.932;2023-06-10T10:26:47;22.00;99.90
837;DHT22;400;53.550;9.932;2023-06-10T10:29:19;22.10;99.90
837;DHT22;400;53.550;9.932;2023-06-10T10:31:50;22.10;99.90
837;DHT22;400;53.550;9.932;2023-06-10T10:34:30;22.20;99.90
837;DHT22;400;53.550;9.932;2023-06-10T10:37:01;22.20;99.90
837;DHT22;400;53.550;9.932;2023-06-10T10:39:34;22.30;99.90
837;DHT22;400;53.550;9.932;2023-06-10T10:42:04;22.30;99.90
837;DHT22;400;53.550;9.932;2023-06-10T10:44:38;22.30;99.90
837;DHT22;400;53.550;9.932;2023-06-10T10:47:12;22.40;99.90
837;DHT22;400;53.550;9.932;2023-06-10T10:49:52;22.50;99.90
837;DHT22;400;53.550;9.932;2023-06-10T10:52:27;22.60;99.90
837;DHT22;400;53.550;9.932;2023-06-10T10:55:15;22.70;99.90
837;DHT22;400;53.550;9.932;2023-06-10T10:57:55;22.80;99.90
837;DHT22;400;53.550;9.932;2023-06-10T11:00:32;22.90;99.90
837;DHT22;400;53.550;9.932;2023-06-10T11:03:13;22.90;99.90
837;DHT22;400;53.550;9.932;2023-06-10T11:05:45;22.90;99.90
837;DHT22;400;53.550;9.932;2023-06-10T11:08:15;23.00;99.90
837;DHT22;400;53.550;9.932;2023-06-10T11:10:52;22.90;99.90
837;DHT22;400;53.550;9.932;2023-06-10T11:13:21;23.00;99.90
837;DHT22;400;53.550;9.932;2023-06-10T11:15:50;23.10;99.90
837;DHT22;400;53.550;9.932;2023-06-10T11:18:26;23.10;99.90
837;DHT22;400;53.550;9.932;2023-06-10T11:21:00;23.30;99.90
837;DHT22;400;53.550;9.932;2023-06-10T11:23:37;23.30;99.90
837;DHT22;400;53.550;9.932;2023-06-10T11:26:18;23.40;99.90
837;DHT22;400;53.550;9.932;2023-06-10T11:29:06;23.40;99.90
837;DHT22;400;53.550;9.932;2023-06-10T11:31:45;23.40;99.90
837;DHT22;400;53.550;9.932;2023-06-10T11:34:23;23.50;99.90
837;DHT22;400;53.550;9.932;2023-06-10T11:36:54;23.60;99.90
837;DHT22;400;53.550;9.932;2023-06-10T11:39:28;23.70;99.90
837;DHT22;400;53.550;9.932;2023-06-10T11:41:55;23.70;99.90
837;DHT22;400;53.550;9.932;2023-06-10T11:44:27;23.70;99.90
837;DHT22;400;53.550;9.932;2023-06-10T11:46:56;23.70;99.90
837;DHT22;400;53.550;9.932;2023-06-10T11:49:27;23.80;99.90
837;DHT22;400;53.550;9.932;2023-06-10T11:51:55;23.80;99.90
837;DHT22;400;53.550;9.932;2023-06-10T11:54:26;23.90;99.90
837;DHT22;400;53.550;9.932;2023-06-10T11:57:00;23.90;99.90
837;DHT22;400;53.550;9.932;2023-06-10T11:59:32;23.90;99.90
837;DHT22;400;53.550;9.932;2023-06-10T12:02:14;24.00;99.90
837;DHT22;400;53.550;9.932;2023-06-10T12:04:46;23.90;99.90
837;DHT22;400;53.550;9.932;2023-06-10T12:07:20;24.10;99.90
837;DHT22;400;53.550;9.932;2023-06-10T12:09:58;24.20;99.90
837;DHT22;400;53.550;9.932;2023-06-10T12:12:26;24.20;99.90
837;DHT22;400;53.550;9.932;2023-06-10T12:14:57;24.20;99.90
837;DHT22;400;53.550;9.932;2023-06-10T12:17:43;24.20;99.90
837;DHT22;400;53.550;9.932;2023-06-10T12:20:26;24.20;99.90
837;DHT22;400;53.550;9.932;2023-06-10T12:22:53;24.20;99.90
837;DHT22;400;53.550;9.932;2023-06-10T12:25:27;24.30;99.90
837;DHT22;400;53.550;9.932;2023-06-10T12:27:56;24.30;99.90
837;DHT22;400;53.550;9.932;2023-06-10T12:30:37;24.40;99.90
837;DHT22;400;53.550;9.932;2023-06-10T12:33:17;24.50;99.90
837;DHT22;400;53.550;9.932;2023-06-10T12:36:02;24.60;99.90
837;DHT22;400;53.550;9.932;2023-06-10T12:38:39;24.70;99.90
837;DHT22;400;53.550;9.932;2023-06-10T12:41:30;24.70;99.90
837;DHT22;400;53.550;9.932;2023-06-10T12:44:02;24.80;99.90
837;DHT22;400;53.550;9.932;2023-06-10T12:46:37;24.90;99.90
837;DHT22;400;53.550;9.932;2023-06-10T12:49:07;24.90;99.90
837;DHT22;400;53.550;9.932;2023-06-10T12:51:35;24.90;99.90
837;DHT22;400;53.550;9.932;2023-06-10T12:54:05;24.90;99.90
837;DHT22;400;53.550;9.932;2023-06-10T12:56:37;24.90;99.90
837;DHT22;400;53.550;9.932;2023-06-10T12:59:15;25.00;99.90
837;DHT22;400;53.550;9.932;2023-06-10T13:01:56;25.10;99.90
837;DHT22;400;53.550;9.932;2023-06-10T13:04:27;25.20;99.90
837;DHT22;400;53.550;9.932;2023-06-10T13:06:57;25.30;99.90
837;DHT22;400;53.550;9.932;2023-06-10T13:09:26;25.30;99.90
837;DHT22;400;53.550;9.932;2023-06-10T13:11:58;25.30;99.90
837;DHT22;400;53.550;9.932;2023-06-10T13:14:37;25.30;99.90
837;DHT22;400;53.550;9.932;2023-06-10T13:17:09;25.30;99.90
837;DHT22;400;53.550;9.932;2023-06-10T13:19:42;25.40;99.90
837;DHT22;400;53.550;9.932;2023-06-10T13:22:16;25.30;99.90
837;DHT22;400;53.550;9.932;2023-06-10T13:24:45;25.30;99.90
837;DHT22;400;53.550;9.932;2023-06-10T13:27:12;25.40;99.90
837;DHT22;400;53.550;9.932;2023-06-10T13:29:42;25.50;99.90
837;DHT22;400;53.550;9.932;2023-06-10T13:32:14;25.60;99.90
837;DHT22;400;53.550;9.932;2023-06-10T13:34:48;25.60;99.90
837;DHT22;400;53.550;9.932;2023-06-10T13:37:31;25.50;99.90
837;DHT22;400;53.550;9.932;2023-06-10T13:39:59;25.70;99.90
837;DHT22;400;53.550;9.932;2023-06-10T13:42:26;25.80;99.90
837;DHT22;400;53.550;9.932;2023-06-10T13:44:54;25.70;99.90
837;DHT22;400;53.550;9.932;2023-06-10T13:47:27;25.80;99.90
837;DHT22;400;53.550;9.932;2023-06-10T13:49:55;25.90;99.90
837;DHT22;400;53.550;9.932;2023-06-10T13:52:23;25.90;99.90
837;DHT22;400;53.550;9.932;2023-06-10T13:54:52;26.00;99.90
837;DHT22;400;53.550;9.932;2023-06-10T13:57:22;26.00;99.90
837;DHT22;400;53.550;9.932;2023-06-10T13:59:58;26.00;99.90
837;DHT22;400;53.550;9.932;2023-06-10T14:02:33;26.00;99.90
837;DHT22;400;53.550;9.932;2023-06-10T14:05:09;26.00;99.90
837;DHT22;400;53.550;9.932;2023-06-10T14:07:44;26.00;99.90
837;DHT22;400;53.550;9.932;2023-06-10T14:10:12;26.00;99.90
837;DHT22;400;53.550;9.932;2023-06-10T14:12:39;26.00;99.90
837;DHT22;400;53.550;9.932;2023-06-10T14:15:08;26.00;99.90
837;DHT22;400;53.550;9.932;2023-06-10T14:17:35;25.90;99.90
837;DHT22;400;53.550;9.932;2023-06-10T14:20:02;25.90;99.90
837;DHT22;400;53.550;9.932;2023-06-10T14:22:31;25.90;99.90
837;DHT22;400;53.550;9.932;2023-06-10T14:24:58;25.70;99.90
837;DHT22;400;53.550;9.932;2023-06-10T14:27:28;25.60;99.90
837;DHT22;400;53.550;9.932;2023-06-10T14:29:54;25.50;99.90
837;DHT22;400;53.550;9.932;2023-06-10T14:32:21;25.40;99.90
837;DHT22;400;53.550;9.932;2023-06-10T14:34:48;25.40;99.90
837;DHT22;400;53.550;9.932;2023-06-10T14:37:18;25.40;99.90
837;DHT22;400;53.550;9.932;2023-06-10T14:39:55;25.50;99.90
837;DHT22;400;53.550;9.932;2023-06-10T14:42:25;25.50;99.90
837;DHT22;400;53.550;9.932;2023-06-10T14:44:53;25.50;99.90
837;DHT22;400;53.550;9.932;2023-06-10T14:47:20;25.50;99.90
837;DHT22;400;53.550;9.932;2023-06-10T14:49:47;25.50;99.90
837;DHT22;400;53.550;9.932;2023-06-10T14:52:15;25.60;99.90
837;DHT22;400;53.550;9.932;2023-06-10T14:54:44;25.60;99.90
837;DHT22;400;53.550;9.932;2023-06-10T14:57:11;25.60;99.90
837;DHT22;400;53.550;9.932;2023-06-10T14:59:38;25.50;99.90
837;DHT22;400;53.550;9.932;2023-06-10T15:02:09;25.50;99.90
837;DHT22;400;53.550;9.932;2023-06-10T15:04:36;25.40;99.90
837;DHT22;400;53.550;9.932;2023-06-10T15:07:06;25.50;99.90
837;DHT22;400;53.550;9.932;2023-06-10T15:09:41;25.40;99.90
837;DHT22;400;53.550;9.932;2023-06-10T15:12:17;25.40;99.90
837;DHT22;400;53.550;9.932;2023-06-10T15:14:48;25.40;99.90
837;DHT22;400;53.550;9.932;2023-06-10T15:17:19;25.50;99.90
837;DHT22;400;53.550;9.932;2023-06-10T15:19:46;25.50;99.90
837;DHT22;400;53.550;9.932;2023-06-10T15:22:12;25.40;99.90
837;DHT22;400;53.550;9.932;2023-06-10T15:24:40;25.50;99.90
837;DHT22;400;53.550;9.932;2023-06-10T15:27:13;25.60;99.90
837;DHT22;400;53.550;9.932;2023-06-10T15:29:44;25.60;99.90
837;DHT22;400;53.550;9.932;2023-06-10T15:32:13;25.60;99.90
837;DHT22;400;53.550;9.932;2023-06-10T15:34:48;25.30;99.90
837;DHT22;400;53.550;9.932;2023-06-10T15:37:28;25.30;99.90
837;DHT22;400;53.550;9.932;2023-06-10T15:40:07;25.30;99.90
837;DHT22;400;53.550;9.932;2023-06-10T15:42:41;25.30;99.90
837;DHT22;400;53.550;9.932;2023-06-10T15:45:10;25.40;99.90
837;DHT22;400;53.550;9.932;2023-06-10T15:47:38;25.40;99.90
837;DHT22;400;53.550;9.932;2023-06-10T15:50:16;25.30;99.90
837;DHT22;400;53.550;9.932;2023-06-10T15:52:45;25.30;99.90
837;DHT22;400;53.550;9.932;2023-06-10T15:55:16;25.30;99.90
837;DHT22;400;53.550;9.932;2023-06-10T15:57:46;25.50;99.90
837;DHT22;400;53.550;9.932;2023-06-10T16:00:14;26.00;99.90
837;DHT22;400;53.550;9.932;2023-06-10T16:02:42;26.80;99.90
837;DHT22;400;53.550;9.932;2023-06-10T16:05:09;27.60;99.90
837;DHT22;400;53.550;9.932;2023-06-10T16:07:37;28.10;99.10
837;DHT22;400;53.550;9.932;2023-06-10T16:10:07;28.50;98.00
837;DHT22;400;53.550;9.932;2023-06-10T16:12:37;28.50;97.40
837;DHT22;400;53.550;9.932;2023-06-10T16:15:04;28.80;96.90
837;DHT22;400;53.550;9.932;2023-06-10T16:17:36;28.90;96.10
837;DHT22;400;53.550;9.932;2023-06-10T16:20:05;29.30;95.80
837;DHT22;400;53.550;9.932;2023-06-10T16:22:37;30.00;94.60
837;DHT22;400;53.550;9.932;2023-06-10T16:25:05;30.40;93.70
837;DHT22;400;53.550;9.932;2023-06-10T16:27:32;30.90;92.70
837;DHT22;400;53.550;9.932;2023-06-10T16:29:59;31.00;91.90
837;DHT22;400;53.550;9.932;2023-06-10T16:37:25;31.80;91.10
837;DHT22;400;53.550;9.932;2023-06-10T16:39:54;32.80;87.50
837;DHT22;400;53.550;9.932;2023-06-10T16:42:28;32.80;84.90
837;DHT22;400;53.550;9.932;2023-06-10T16:45:04;32.60;84.80
837;DHT22;400;53.550;9.932;2023-06-10T16:47:37;32.90;83.70
837;DHT22;400;53.550;9.932;2023-06-10T16:50:09;33.50;82.10
837;DHT22;400;53.550;9.932;2023-06-10T16:52:41;33.00;80.80
837;DHT22;400;53.550;9.932;2023-06-10T16:55:11;32.20;82.80
837;DHT22;400;53.550;9.932;2023-06-10T16:57:38;32.10;83.10
837;DHT22;400;53.550;9.932;2023-06-10T17:00:06;31.80;83.00
837;DHT22;400;53.550;9.932;2023-06-10T17:02:33;31.70;84.40